createdAt,value
2022-08-09T00:01:10.460Z,17.82
2022-08-09T00:04:05.874Z,17.66
2022-08-09T00:06:27.876Z,17.67
2022-08-09T00:08:57.511Z,17.71
2022-08-09T00:11:27.720Z,17.57
2022-08-09T00:14:11.489Z,17.57
2022-08-09T00:16:44.727Z,17.55
2022-08-09T00:19:14.248Z,17.46
2022-08-09T00:21:56.247Z,17.39
2022-08-09T00:24:24.596Z,17.38
2022-08-09T00:26:51.665Z,17.34
2022-08-09T00:29:39.875Z,17.28
2022-08-09T00:32:06.074Z,17.11
2022-08-09T00:34:32.769Z,17.21
2022-08-09T00:37:00.849Z,17.16
2022-08-09T00:40:13.927Z,17.16
2022-08-09T00:44:18.856Z,17.09
2022-08-09T00:45:03.542Z,16.93
2022-08-09T00:47:42.259Z,17.00
2022-08-09T00:50:14.761Z,17.00
2022-08-09T00:52:41.880Z,16.92
2022-08-09T00:55:09.144Z,16.87
2022-08-09T00:57:43.512Z,16.84
2022-08-09T01:00:21.625Z,16.87
2022-08-09T01:02:52.478Z,16.79
2022-08-09T01:05:51.644Z,16.78
2022-08-09T01:08:29.215Z,16.64
2022-08-09T01:11:15.873Z,16.68
2022-08-09T01:13:59.258Z,16.59
2022-08-09T01:16:40.731Z,16.58
2022-08-09T01:19:43.000Z,16.54
2022-08-09T01:22:24.902Z,16.51
2022-08-09T01:25:07.422Z,16.46
2022-08-09T01:27:36.177Z,16.42
2022-08-09T01:30:07.162Z,16.37
2022-08-09T01:32:43.752Z,16.27
2022-08-09T01:35:37.302Z,16.27
2022-08-09T01:38:15.098Z,16.26
2022-08-09T01:40:52.360Z,16.09
2022-08-09T01:43:19.565Z,16.15
2022-08-09T01:45:52.146Z,16.17
2022-08-09T01:48:19.565Z,16.08
2022-08-09T01:50:55.168Z,16.04
2022-08-09T01:53:29.318Z,15.99
2022-08-09T01:56:09.933Z,16.00
2022-08-09T01:58:37.684Z,15.95
2022-08-09T02:01:05.579Z,15.92
2022-08-09T02:03:36.806Z,15.88
2022-08-09T02:06:06.911Z,15.80
2022-08-09T02:08:57.558Z,15.82
2022-08-09T02:11:42.687Z,15.68
2022-08-09T02:14:15.109Z,15.64
2022-08-09T02:17:15.062Z,15.66
2022-08-09T02:19:43.088Z,15.66
2022-08-09T02:22:34.926Z,15.62
2022-08-09T02:25:08.009Z,15.61
2022-08-09T02:27:57.293Z,15.41
2022-08-09T02:30:26.325Z,15.51
2022-08-09T02:32:54.927Z,15.52
2022-08-09T02:36:01.653Z,15.48
2022-08-09T02:38:21.746Z,15.47
2022-08-09T02:40:49.106Z,15.41
2022-08-09T02:43:21.056Z,15.41
2022-08-09T02:45:49.718Z,15.39
2022-08-09T02:48:30.492Z,15.34
2022-08-09T02:51:02.578Z,15.32
2022-08-09T02:53:53.089Z,15.06
2022-08-09T02:56:28.152Z,15.15
2022-08-09T02:58:55.986Z,15.14
2022-08-09T03:01:29.334Z,15.15
2022-08-09T03:04:17.806Z,15.08
2022-08-09T03:06:49.131Z,15.08
2022-08-09T03:09:17.371Z,15.01
2022-08-09T03:12:05.765Z,15.04
2022-08-09T03:14:32.057Z,15.04
2022-08-09T03:17:01.790Z,15.01
2022-08-09T03:19:58.471Z,14.93
2022-08-09T03:22:25.005Z,14.97
2022-08-09T03:25:00.269Z,14.88
2022-08-09T03:27:44.771Z,14.79
2022-08-09T03:30:12.439Z,14.73
2022-08-09T03:32:40.460Z,14.84
2022-08-09T03:35:15.048Z,14.77
2022-08-09T03:37:55.673Z,14.70
2022-08-09T03:40:25.035Z,14.68
2022-08-09T03:42:51.578Z,14.66
2022-08-09T03:46:04.164Z,14.68
2022-08-09T03:48:05.248Z,14.65
2022-08-09T03:50:35.143Z,14.65
2022-08-09T03:53:05.192Z,14.63
2022-08-09T03:55:36.233Z,14.57
2022-08-09T03:58:16.280Z,14.52
2022-08-09T04:00:45.489Z,14.53
2022-08-09T04:03:19.862Z,14.55
2022-08-09T04:05:58.840Z,14.55
2022-08-09T04:08:29.053Z,14.53
2022-08-09T04:10:56.270Z,14.48
2022-08-09T04:13:44.854Z,14.52
2022-08-09T04:16:20.007Z,14.47
2022-08-09T04:18:47.773Z,14.48
2022-08-09T04:21:15.870Z,14.47
2022-08-09T04:23:54.081Z,14.42
2022-08-09T04:26:23.956Z,14.36
2022-08-09T04:28:50.480Z,14.41
2022-08-09T04:31:17.226Z,14.36
2022-08-09T04:33:44.012Z,14.47
2022-08-09T04:36:19.517Z,14.37
2022-08-09T04:38:48.058Z,14.43
2022-08-09T04:41:14.539Z,14.36
2022-08-09T04:43:46.591Z,14.34
2022-08-09T04:46:38.071Z,14.38
2022-08-09T04:49:15.122Z,14.25
2022-08-09T04:51:41.611Z,14.36
2022-08-09T04:54:08.121Z,14.33
2022-08-09T04:56:38.734Z,14.38
2022-08-09T04:59:12.934Z,14.35
2022-08-09T05:01:41.896Z,14.32
2022-08-09T05:04:08.524Z,14.42
2022-08-09T05:06:35.878Z,14.41
2022-08-09T05:09:02.625Z,14.40
2022-08-09T05:11:30.565Z,14.45
2022-08-09T05:13:59.285Z,14.48
2022-08-09T05:16:31.751Z,14.46
2022-08-09T05:19:00.262Z,14.49
2022-08-09T05:21:30.072Z,14.50
2022-08-09T05:24:03.896Z,14.50
2022-08-09T05:26:35.321Z,14.45
2022-08-09T05:29:21.721Z,14.49
2022-08-09T05:31:57.170Z,14.52
2022-08-09T05:34:32.529Z,14.53
2022-08-09T05:37:04.950Z,14.56
2022-08-09T05:39:36.038Z,14.59
2022-08-09T05:42:10.224Z,14.52
2022-08-09T05:44:44.673Z,14.57
2022-08-09T05:47:14.255Z,14.62
2022-08-09T05:50:35.033Z,14.67
2022-08-09T05:52:27.571Z,14.58
2022-08-09T05:54:57.268Z,14.75
2022-08-09T05:57:55.841Z,14.80
2022-08-09T06:00:16.650Z,14.81
2022-08-09T06:02:46.667Z,14.76
2022-08-09T06:05:13.649Z,14.87
2022-08-09T06:07:40.229Z,14.89
2022-08-09T06:10:15.936Z,14.86
2022-08-09T06:12:44.568Z,14.94
2022-08-09T06:15:17.341Z,15.01
2022-08-09T06:17:43.822Z,15.07
2022-08-09T06:20:13.317Z,15.14
2022-08-09T06:22:45.672Z,15.09
2022-08-09T06:25:12.480Z,15.21
2022-08-09T06:27:51.690Z,15.28
2022-08-09T06:30:18.654Z,15.37
2022-08-09T06:33:13.680Z,15.35
2022-08-09T06:35:56.520Z,15.43
2022-08-09T06:38:19.214Z,15.48
2022-08-09T06:40:46.076Z,15.49
2022-08-09T06:43:13.628Z,15.41
2022-08-09T06:46:05.558Z,15.64
2022-08-09T06:48:30.389Z,15.70
2022-08-09T06:50:57.418Z,15.72
2022-08-09T06:53:24.872Z,15.70
2022-08-09T06:55:52.151Z,15.81
2022-08-09T06:58:46.247Z,15.90
2022-08-09T07:01:06.204Z,15.93
2022-08-09T07:03:39.534Z,15.98
2022-08-09T07:06:19.981Z,16.03
2022-08-09T07:08:49.576Z,16.16
2022-08-09T07:11:17.595Z,16.21
2022-08-09T07:14:04.382Z,16.24
2022-08-09T07:16:42.831Z,16.28
2022-08-09T07:19:18.615Z,16.32
2022-08-09T07:21:55.802Z,16.37
2022-08-09T07:24:32.129Z,16.41
2022-08-09T07:27:10.936Z,16.49
2022-08-09T07:29:56.848Z,16.53
2022-08-09T07:32:32.617Z,16.63
2022-08-09T07:35:02.834Z,16.62
2022-08-09T07:37:43.726Z,16.75
2022-08-09T07:40:20.518Z,16.83
2022-08-09T07:42:56.028Z,16.93
2022-08-09T07:45:39.518Z,16.98
2022-08-09T07:48:28.479Z,17.09
2022-08-09T07:51:10.327Z,17.16
2022-08-09T07:54:05.204Z,17.26
2022-08-09T07:56:33.642Z,17.33
2022-08-09T07:59:00.354Z,17.36
2022-08-09T08:01:33.044Z,17.39
2022-08-09T08:04:00.455Z,17.53
2022-08-09T08:06:31.944Z,17.55
2022-08-09T08:09:04.586Z,17.65
2022-08-09T08:12:11.582Z,17.70
2022-08-09T08:14:18.423Z,17.71
2022-08-09T08:17:00.961Z,17.84
2022-08-09T08:19:34.322Z,17.90
2022-08-09T08:22:01.701Z,18.00
2022-08-09T08:24:34.165Z,17.97
2022-08-09T08:27:16.492Z,18.08
2022-08-09T08:29:48.467Z,18.23
2022-08-09T08:32:24.335Z,18.25
2022-08-09T08:35:02.962Z,18.31
2022-08-09T08:37:41.327Z,18.39
2022-08-09T08:40:16.897Z,18.42
2022-08-09T08:42:47.201Z,18.59
2022-08-09T08:45:16.589Z,18.54
2022-08-09T08:47:45.029Z,18.69
2022-08-09T08:50:17.961Z,18.68
2022-08-09T08:53:00.078Z,18.82
2022-08-09T08:55:28.290Z,18.83
2022-08-09T08:57:58.997Z,18.82
2022-08-09T09:00:34.636Z,18.99
2022-08-09T09:03:08.266Z,19.09
2022-08-09T09:05:58.883Z,19.08
2022-08-09T09:08:30.198Z,19.26
2022-08-09T09:10:59.486Z,19.30
2022-08-09T09:13:41.641Z,19.35
2022-08-09T09:16:12.698Z,19.42
2022-08-09T09:18:45.817Z,19.43
2022-08-09T09:21:15.582Z,19.58
2022-08-09T09:23:50.009Z,19.63
2022-08-09T09:26:26.167Z,19.63
2022-08-09T09:29:04.128Z,19.61
2022-08-09T09:32:03.848Z,19.75
2022-08-09T09:34:24.012Z,19.88
2022-08-09T09:36:56.241Z,19.93
2022-08-09T09:39:25.561Z,19.91
2022-08-09T09:42:22.326Z,20.07
2022-08-09T09:44:57.481Z,20.09
2022-08-09T09:47:24.525Z,20.17
2022-08-09T09:50:13.797Z,20.23
2022-08-09T09:52:53.618Z,20.26
2022-08-09T09:55:31.334Z,20.30
2022-08-09T09:58:17.010Z,20.37
2022-08-09T10:00:59.452Z,20.44
2022-08-09T10:03:42.799Z,20.52
2022-08-09T10:06:11.712Z,20.49
2022-08-09T10:08:54.130Z,20.64
2022-08-09T10:12:00.043Z,20.68
2022-08-09T10:14:26.090Z,20.71
2022-08-09T10:17:00.329Z,20.85
2022-08-09T10:19:38.728Z,20.87
2022-08-09T10:22:06.966Z,20.90
2022-08-09T10:24:36.144Z,21.02
2022-08-09T10:27:03.437Z,21.15
2022-08-09T10:30:43.642Z,21.06
2022-08-09T10:32:50.398Z,21.13
2022-08-09T10:35:13.303Z,21.13
2022-08-09T10:37:40.089Z,21.20
2022-08-09T10:40:12.122Z,21.27
2022-08-09T10:42:56.006Z,21.33
2022-08-09T10:45:23.441Z,21.34
2022-08-09T10:48:26.183Z,21.44
2022-08-09T10:51:09.727Z,21.46
2022-08-09T10:53:59.560Z,21.47
2022-08-09T10:56:33.689Z,21.55
2022-08-09T10:59:23.370Z,21.68
2022-08-09T11:03:13.390Z,21.77
2022-08-09T11:05:25.287Z,21.92
2022-08-09T11:07:59.012Z,21.87
2022-08-09T11:10:54.617Z,22.00
2022-08-09T11:13:50.511Z,21.91
2022-08-09T11:16:37.741Z,22.10
2022-08-09T11:19:07.864Z,22.04
2022-08-09T11:21:55.171Z,22.11
2022-08-09T11:25:03.657Z,22.26
2022-08-09T11:28:04.567Z,22.33
2022-08-09T11:30:32.991Z,22.35
2022-08-09T11:33:06.497Z,22.46
2022-08-09T11:36:01.018Z,22.57
2022-08-09T11:38:33.166Z,22.63
2022-08-09T11:41:16.082Z,22.72
2022-08-09T11:43:47.080Z,22.74
2022-08-09T11:46:26.462Z,22.68
2022-08-09T11:49:01.026Z,22.72
2022-08-09T11:53:03.499Z,22.95
2022-08-09T11:55:34.726Z,23.16
2022-08-09T11:58:14.353Z,23.18
2022-08-09T12:00:52.953Z,23.20
2022-08-09T12:03:54.895Z,23.30
2022-08-09T12:06:26.547Z,23.27
2022-08-09T12:08:55.754Z,23.43
2022-08-09T12:11:25.533Z,23.52
2022-08-09T12:14:09.949Z,23.49
2022-08-09T12:16:42.894Z,23.39
2022-08-09T12:19:13.165Z,23.63
2022-08-09T12:21:48.618Z,23.71
2022-08-09T12:24:23.735Z,23.75
2022-08-09T12:29:12.528Z,23.82
2022-08-09T12:29:44.620Z,23.80
2022-08-09T12:32:26.851Z,23.96
2022-08-09T12:34:59.742Z,23.95
2022-08-09T12:37:49.642Z,24.04
2022-08-09T12:40:19.039Z,24.20
2022-08-09T12:42:50.552Z,24.16
2022-08-09T12:45:34.898Z,24.29
2022-08-09T12:48:20.441Z,24.29
2022-08-09T12:50:57.894Z,24.50
2022-08-09T12:53:38.446Z,24.47
2022-08-09T12:56:37.190Z,24.58
2022-08-09T12:59:13.990Z,24.57
2022-08-09T13:01:49.864Z,24.46
2022-08-09T13:04:36.994Z,24.67
2022-08-09T13:07:13.901Z,24.72
2022-08-09T13:09:52.734Z,24.65
2022-08-09T13:12:22.621Z,24.79
2022-08-09T13:14:53.820Z,24.74
2022-08-09T13:17:25.671Z,25.01
2022-08-09T13:20:18.663Z,25.10
2022-08-09T13:23:01.647Z,25.12
2022-08-09T13:25:52.995Z,25.13
2022-08-09T13:28:33.950Z,25.16
2022-08-09T13:32:12.383Z,25.20
2022-08-09T13:33:57.360Z,25.35
2022-08-09T13:36:42.463Z,25.40
2022-08-09T13:41:17.596Z,25.39
2022-08-09T13:42:11.898Z,25.46
2022-08-09T13:44:40.410Z,25.52
2022-08-09T13:47:33.660Z,25.57
2022-08-09T13:50:03.006Z,25.68
2022-08-09T13:52:35.869Z,25.76
2022-08-09T13:55:07.351Z,25.77
2022-08-09T13:57:39.742Z,25.81
2022-08-09T14:00:18.619Z,25.78
2022-08-09T14:03:16.590Z,25.89
2022-08-09T14:05:57.428Z,25.84
2022-08-09T14:08:22.384Z,25.95
2022-08-09T14:10:52.341Z,26.09
2022-08-09T14:13:27.940Z,26.10
2022-08-09T14:16:11.430Z,26.19
2022-08-09T14:18:45.117Z,26.27
2022-08-09T14:21:17.556Z,26.32
2022-08-09T14:23:55.372Z,26.40
2022-08-09T14:26:32.656Z,26.43
2022-08-09T14:29:07.849Z,26.41
2022-08-09T14:31:53.851Z,26.59
2022-08-09T14:34:30.911Z,26.63
2022-08-09T14:37:00.460Z,26.81
2022-08-09T14:39:47.254Z,26.83
2022-08-09T14:42:30.565Z,26.74
2022-08-09T14:46:39.672Z,26.87
2022-08-09T14:47:59.124Z,26.93
2022-08-09T14:50:27.942Z,26.83
2022-08-09T14:52:54.645Z,27.01
2022-08-09T14:55:21.445Z,27.00
2022-08-09T14:57:48.763Z,27.23
2022-08-09T15:00:16.225Z,27.25
2022-08-09T15:02:42.709Z,27.03
2022-08-09T15:05:16.077Z,27.30
2022-08-09T15:07:45.565Z,27.30
2022-08-09T15:10:25.026Z,27.30
2022-08-09T15:12:53.220Z,27.57
2022-08-09T15:15:20.282Z,27.52
2022-08-09T15:17:52.390Z,27.46
2022-08-09T15:21:57.605Z,27.39
2022-08-09T15:23:56.254Z,27.50
2022-08-09T15:25:55.584Z,27.30
2022-08-09T15:28:27.458Z,27.51
2022-08-09T15:31:10.306Z,27.80
2022-08-09T15:34:17.463Z,27.69
2022-08-09T15:36:30.419Z,27.68
2022-08-09T15:39:00.799Z,27.87
2022-08-09T15:41:31.187Z,27.70
2022-08-09T15:44:00.532Z,27.60
2022-08-09T15:46:34.473Z,27.68
2022-08-09T15:49:22.233Z,27.64
2022-08-09T15:52:04.461Z,27.75
2022-08-09T15:54:49.633Z,27.73
2022-08-09T15:57:34.596Z,27.75
2022-08-09T16:00:09.277Z,27.68
2022-08-09T16:02:40.506Z,27.80
2022-08-09T16:05:10.467Z,28.00
2022-08-09T16:07:39.006Z,27.99
2022-08-09T16:10:17.067Z,27.71
2022-08-09T16:12:55.320Z,27.56
2022-08-09T16:16:11.678Z,27.38
2022-08-09T16:18:08.989Z,27.38
2022-08-09T16:20:37.186Z,27.62
2022-08-09T16:23:05.624Z,27.10
2022-08-09T16:25:40.574Z,27.36
2022-08-09T16:28:07.760Z,27.48
2022-08-09T16:30:44.489Z,27.62
2022-08-09T16:33:11.695Z,27.62
2022-08-09T16:35:57.143Z,27.71
2022-08-09T16:38:26.563Z,27.41
2022-08-09T16:40:53.475Z,27.16
2022-08-09T16:43:22.069Z,27.20
2022-08-09T16:45:53.627Z,27.25
2022-08-09T16:48:41.276Z,27.20
2022-08-09T16:51:13.467Z,27.31
2022-08-09T16:54:02.414Z,27.09
2022-08-09T16:56:30.541Z,26.97
2022-08-09T16:58:57.463Z,27.25
2022-08-09T17:01:24.856Z,27.33
2022-08-09T17:03:51.580Z,27.11
2022-08-09T17:06:29.054Z,27.15
2022-08-09T17:09:12.090Z,26.79
2022-08-09T17:11:44.648Z,26.77
2022-08-09T17:14:25.881Z,26.83
2022-08-09T17:16:55.597Z,26.73
2022-08-09T17:19:22.169Z,26.64
2022-08-09T17:21:55.536Z,26.81
2022-08-09T17:24:30.649Z,26.82
2022-08-09T17:26:58.525Z,26.60
2022-08-09T17:29:31.851Z,26.47
2022-08-09T17:32:04.929Z,26.15
2022-08-09T17:35:03.852Z,26.05
2022-08-09T17:37:19.881Z,26.34
2022-08-09T17:39:52.125Z,26.16
2022-08-09T17:42:55.148Z,26.29
2022-08-09T17:45:15.835Z,26.31
2022-08-09T17:47:54.806Z,26.12
2022-08-09T17:50:36.245Z,26.03
2022-08-09T17:53:19.329Z,26.04
2022-08-09T17:55:49.718Z,25.99
2022-08-09T17:58:19.035Z,25.83
2022-08-09T18:00:47.942Z,25.98
2022-08-09T18:03:14.993Z,25.87
2022-08-09T18:05:44.711Z,25.92
2022-08-09T18:08:13.399Z,25.85
2022-08-09T18:10:40.005Z,25.85
2022-08-09T18:13:43.388Z,25.59
2022-08-09T18:16:07.667Z,25.48
2022-08-09T18:18:43.310Z,25.62
2022-08-09T18:21:21.511Z,25.57
2022-08-09T18:24:10.729Z,25.44
2022-08-09T18:26:38.077Z,25.60
2022-08-09T18:30:35.021Z,25.44
2022-08-09T18:31:56.112Z,25.44
2022-08-09T18:34:23.963Z,25.22
2022-08-09T18:36:50.687Z,25.26
2022-08-09T18:39:22.209Z,25.02
2022-08-09T18:41:53.150Z,24.91
2022-08-09T18:44:22.893Z,25.04
2022-08-09T18:47:04.927Z,25.02
2022-08-09T18:49:43.841Z,24.90
2022-08-09T18:52:15.889Z,24.84
2022-08-09T18:54:52.272Z,24.83
2022-08-09T18:57:19.932Z,24.80
2022-08-09T18:59:56.374Z,24.78
2022-08-09T19:02:31.913Z,24.68
2022-08-09T19:05:04.145Z,24.67
2022-08-09T19:07:59.039Z,24.63
2022-08-09T19:10:29.314Z,24.50
2022-08-09T19:13:20.114Z,24.36
2022-08-09T19:15:49.935Z,24.32
2022-08-09T19:18:33.326Z,24.12
2022-08-09T19:21:09.615Z,24.25
2022-08-09T19:24:33.205Z,24.05
2022-08-09T19:26:31.201Z,24.16
2022-08-09T19:29:01.773Z,24.07
2022-08-09T19:31:30.447Z,23.96
2022-08-09T19:34:10.246Z,23.92
2022-08-09T19:36:50.380Z,23.80
2022-08-09T19:39:17.171Z,23.81
2022-08-09T19:41:47.454Z,23.61
2022-08-09T19:44:15.335Z,23.68
2022-08-09T19:46:50.603Z,23.66
2022-08-09T19:50:09.906Z,23.61
2022-08-09T19:52:07.957Z,23.56
2022-08-09T19:54:34.878Z,23.49
2022-08-09T19:57:02.153Z,23.37
2022-08-09T19:59:58.019Z,23.39
2022-08-09T20:04:08.389Z,23.34
2022-08-09T20:05:10.172Z,23.29
2022-08-09T20:08:00.139Z,23.11
2022-08-09T20:10:36.822Z,23.03
2022-08-09T20:13:06.126Z,23.01
2022-08-09T20:16:33.707Z,23.09
2022-08-09T20:18:22.147Z,22.96
2022-08-09T20:20:50.421Z,22.93
2022-08-09T20:23:19.543Z,22.89
2022-08-09T20:25:52.370Z,22.77
2022-08-09T20:28:34.270Z,22.73
2022-08-09T20:31:02.646Z,22.59
2022-08-09T20:33:40.926Z,22.41
2022-08-09T20:36:08.611Z,22.46
2022-08-09T20:38:50.412Z,22.41
2022-08-09T20:41:32.030Z,22.42
2022-08-09T20:44:01.806Z,22.38
2022-08-09T20:46:42.031Z,22.30
2022-08-09T20:49:10.419Z,22.30
2022-08-09T20:51:41.118Z,22.24
2022-08-09T20:54:08.438Z,22.07
2022-08-09T20:56:39.476Z,22.07
2022-08-09T20:59:07.799Z,22.14
2022-08-09T21:01:50.367Z,22.07
2022-08-09T21:05:54.546Z,22.09
2022-08-09T21:07:11.498Z,21.99
2022-08-09T21:09:46.029Z,21.87
2022-08-09T21:15:12.877Z,21.83
2022-08-09T21:18:23.068Z,21.76
2022-08-09T21:20:29.947Z,21.66
2022-08-09T21:22:57.503Z,21.67
2022-08-09T21:25:44.399Z,21.66
2022-08-09T21:28:33.352Z,21.52
2022-08-09T21:31:02.226Z,21.54
2022-08-09T21:33:49.463Z,21.38
2022-08-09T21:36:17.716Z,21.42
2022-08-09T21:38:45.444Z,21.32
2022-08-09T21:41:17.992Z,21.36
2022-08-09T21:43:56.641Z,21.33
2022-08-09T21:46:24.545Z,21.29
2022-08-09T21:48:51.974Z,21.20
2022-08-09T21:51:35.980Z,21.21
2022-08-09T21:54:06.131Z,21.00
2022-08-09T21:56:42.948Z,21.05
2022-08-09T21:59:11.468Z,21.05
2022-08-09T22:01:58.933Z,21.01
2022-08-09T22:04:37.554Z,20.97
2022-08-09T22:07:23.311Z,20.84
2022-08-09T22:10:01.198Z,20.84
2022-08-09T22:12:32.708Z,20.81
2022-08-09T22:15:00.072Z,20.79
2022-08-09T22:17:32.081Z,20.75
2022-08-09T22:20:01.031Z,20.69
2022-08-09T22:22:28.789Z,20.49
2022-08-09T22:26:08.691Z,20.52
2022-08-09T22:27:42.285Z,20.49
2022-08-09T22:30:09.377Z,20.46
2022-08-09T22:32:35.966Z,20.44
2022-08-09T22:35:06.621Z,20.40
2022-08-09T22:38:06.669Z,20.34
2022-08-09T22:40:34.655Z,20.27
2022-08-09T22:43:01.420Z,20.33
2022-08-09T22:48:12.379Z,20.25
2022-08-09T22:48:34.410Z,20.21
2022-08-09T22:51:01.231Z,20.16
2022-08-09T22:53:58.186Z,20.11
2022-08-09T22:56:33.797Z,20.04
2022-08-09T22:59:05.855Z,19.91
2022-08-09T23:01:48.896Z,19.94
2022-08-09T23:04:15.477Z,19.98
2022-08-09T23:07:02.369Z,19.90
2022-08-09T23:09:28.980Z,19.91
2022-08-09T23:11:55.579Z,19.71
2022-08-09T23:14:36.270Z,19.80
2022-08-09T23:17:08.609Z,19.70
2022-08-09T23:20:02.458Z,19.74
2022-08-09T23:22:21.760Z,19.62
2022-08-09T23:24:48.836Z,19.61
2022-08-09T23:27:15.811Z,19.55
2022-08-09T23:29:42.335Z,19.36
2022-08-09T23:32:08.944Z,19.37
2022-08-09T23:34:36.658Z,19.44
2022-08-09T23:37:04.639Z,19.32
2022-08-09T23:39:31.211Z,19.29
2022-08-09T23:41:57.922Z,19.20
2022-08-09T23:44:27.362Z,19.27
2022-08-09T23:46:57.276Z,19.24
2022-08-09T23:49:25.556Z,19.14
2022-08-09T23:51:53.312Z,19.16
2022-08-09T23:54:20.585Z,19.08
2022-08-09T23:56:53.920Z,19.09
2022-08-09T23:59:23.029Z,18.99
